sensor_id;sensor_type;location;lat;lon;timestamp;pressure;altitude;pressure_sealevel;temperature;humidity
50103;BME280;35993;52.604;10.078;2023-08-21T00:01:47;101872.88;;;20.65;100.00
50103;BME280;35993;52.604;10.078;2023-08-21T00:04:13;101869.19;;;20.37;100.00
50103;BME280;35993;52.604;10.078;2023-08-21T00:06:39;101860.03;;;20.31;100.00
50103;BME280;35993;52.604;10.078;2023-08-21T00:09:09;101865.44;;;20.43;100.00
50103;BME280;35993;52.604;10.078;2023-08-21T00:11:35;101861.31;;;20.45;100.00
50103;BME280;35993;52.604;10.078;2023-08-21T00:14:01;101856.63;;;20.46;100.00
50103;BME280;35993;52.604;10.078;2023-08-21T00:16:27;101864.66;;;20.48;100.00
50103;BME280;35993;52.604;10.078;2023-08-21T00:18:54;101869.59;;;20.45;100.00
50103;BME280;35993;52.604;10.078;2023-08-21T00:21:19;101861.13;;;20.30;100.00
50103;BME280;35993;52.604;10.078;2023-08-21T00:23:45;101858.81;;;20.22;100.00
50103;BME280;35993;52.604;10.078;2023-08-21T00:26:12;101859.03;;;20.20;100.00
50103;BME280;35993;52.604;10.078;2023-08-21T00:28:41;101856.88;;;20.22;100.00
50103;BME280;35993;52.604;10.078;2023-08-21T00:31:07;101848.88;;;20.21;100.00
50103;BME280;35993;52.604;10.078;2023-08-21T00:33:34;101856.88;;;20.22;100.00
50103;BME280;35993;52.604;10.078;2023-08-21T00:36:00;101850.28;;;20.23;100.00
50103;BME280;35993;52.604;10.078;2023-08-21T00:38:26;101847.44;;;20.18;100.00
50103;BME280;35993;52.604;10.078;2023-08-21T00:40:52;101841.53;;;20.09;100.00
50103;BME280;35993;52.604;10.078;2023-08-21T00:43:17;101841.72;;;20.03;100.00
50103;BME280;35993;52.604;10.078;2023-08-21T00:45:44;101833.19;;;20.04;100.00
50103;BME280;35993;52.604;10.078;2023-08-21T00:48:13;101833.13;;;19.99;100.00
50103;BME280;35993;52.604;10.078;2023-08-21T00:50:43;101824.25;;;19.97;100.00
50103;BME280;35993;52.604;10.078;2023-08-21T00:53:10;101822.28;;;19.92;100.00
50103;BME280;35993;52.604;10.078;2023-08-21T00:55:37;101824.09;;;19.87;100.00
50103;BME280;35993;52.604;10.078;2023-08-21T00:58:04;101830.22;;;19.89;100.00
50103;BME280;35993;52.604;10.078;2023-08-21T01:00:30;101839.72;;;19.81;100.00
50103;BME280;35993;52.604;10.078;2023-08-21T01:02:57;101832.53;;;19.63;100.00
50103;BME280;35993;52.604;10.078;2023-08-21T01:05:25;101828.28;;;19.72;100.00
50103;BME280;35993;52.604;10.078;2023-08-21T01:08:21;101822.50;;;19.74;100.00
50103;BME280;35993;52.604;10.078;2023-08-21T01:10:51;101834.94;;;19.76;100.00
50103;BME280;35993;52.604;10.078;2023-08-21T01:15:51;101829.69;;;19.75;100.00
50103;BME280;35993;52.604;10.078;2023-08-21T01:18:20;101824.84;;;19.65;100.00
50103;BME280;35993;52.604;10.078;2023-08-21T01:20:50;101830.63;;;19.63;100.00
50103;BME280;35993;52.604;10.078;2023-08-21T01:23:35;101825.19;;;19.52;100.00
50103;BME280;35993;52.604;10.078;2023-08-21T01:26:02;101827.09;;;19.51;100.00
50103;BME280;35993;52.604;10.078;2023-08-21T01:28:31;101821.50;;;19.46;100.00
50103;BME280;35993;52.604;10.078;2023-08-21T01:31:07;101830.94;;;19.50;100.00
50103;BME280;35993;52.604;10.078;2023-08-21T01:33:59;101825.94;;;19.47;100.00
50103;BME280;35993;52.604;10.078;2023-08-21T01:36:26;101830.09;;;19.49;100.00
50103;BME280;35993;52.604;10.078;2023-08-21T01:38:52;101826.19;;;19.45;100.00
50103;BME280;35993;52.604;10.078;2023-08-21T01:41:25;101823.69;;;19.44;100.00
50103;BME280;35993;52.604;10.078;2023-08-21T01:43:53;101822.03;;;19.43;100.00
50103;BME280;35993;52.604;10.078;2023-08-21T01:46:19;101830.03;;;19.44;100.00
50103;BME280;35993;52.604;10.078;2023-08-21T01:48:44;101822.50;;;19.23;100.00
50103;BME280;35993;52.604;10.078;2023-08-21T01:51:10;101837.16;;;19.11;100.00
50103;BME280;35993;52.604;10.078;2023-08-21T01:53:35;101828.31;;;19.09;100.00
50103;BME280;35993;52.604;10.078;2023-08-21T01:56:01;101838.09;;;19.17;100.00
50103;BME280;35993;52.604;10.078;2023-08-21T01:58:26;101834.00;;;19.20;100.00
50103;BME280;35993;52.604;10.078;2023-08-21T02:00:52;101835.81;;;19.14;100.00
50103;BME280;35993;52.604;10.078;2023-08-21T02:03:18;101832.72;;;19.10;100.00
50103;BME280;35993;52.604;10.078;2023-08-21T02:05:43;101823.22;;;19.01;100.00
50103;BME280;35993;52.604;10.078;2023-08-21T02:08:12;101837.97;;;18.83;100.00
50103;BME280;35993;52.604;10.078;2023-08-21T02:10:49;101827.38;;;18.75;100.00
50103;BME280;35993;52.604;10.078;2023-08-21T02:13:15;101827.28;;;18.70;100.00
50103;BME280;35993;52.604;10.078;2023-08-21T02:15:41;101833.28;;;18.83;100.00
50103;BME280;35993;52.604;10.078;2023-08-21T02:18:07;101838.50;;;18.68;100.00
50103;BME280;35993;52.604;10.078;2023-08-21T02:20:32;101837.72;;;18.56;100.00
50103;BME280;35993;52.604;10.078;2023-08-21T02:22:59;101839.13;;;18.58;100.00
50103;BME280;35993;52.604;10.078;2023-08-21T02:25:25;101836.75;;;18.50;100.00
50103;BME280;35993;52.604;10.078;2023-08-21T02:27:51;101836.06;;;18.43;100.00
50103;BME280;35993;52.604;10.078;2023-08-21T02:30:17;101843.09;;;18.50;100.00
50103;BME280;35993;52.604;10.078;2023-08-21T02:32:42;101845.03;;;18.38;100.00
50103;BME280;35993;52.604;10.078;2023-08-21T02:35:09;101851.50;;;18.32;100.00
50103;BME280;35993;52.604;10.078;2023-08-21T02:37:35;101852.56;;;18.31;100.00
50103;BME280;35993;52.604;10.078;2023-08-21T02:40:07;101849.25;;;18.29;100.00
50103;BME280;35993;52.604;10.078;2023-08-21T02:42:35;101851.63;;;18.25;100.00
50103;BME280;35993;52.604;10.078;2023-08-21T02:45:02;101845.28;;;18.25;100.00
50103;BME280;35993;52.604;10.078;2023-08-21T02:47:30;101848.03;;;18.37;100.00
50103;BME280;35993;52.604;10.078;2023-08-21T02:49:55;101851.13;;;18.28;100.00
50103;BME280;35993;52.604;10.078;2023-08-21T02:52:21;101855.19;;;18.26;100.00
50103;BME280;35993;52.604;10.078;2023-08-21T02:54:47;101855.34;;;18.19;100.00
50103;BME280;35993;52.604;10.078;2023-08-21T02:57:13;101852.09;;;18.22;100.00
50103;BME280;35993;52.604;10.078;2023-08-21T02:59:44;101855.09;;;18.09;100.00
50103;BME280;35993;52.604;10.078;2023-08-21T03:02:09;101857.50;;;18.05;100.00
50103;BME280;35993;52.604;10.078;2023-08-21T03:04:35;101861.91;;;18.06;100.00
50103;BME280;35993;52.604;10.078;2023-08-21T03:07:00;101863.34;;;18.09;100.00
50103;BME280;35993;52.604;10.078;2023-08-21T03:09:27;101864.31;;;18.02;100.00
50103;BME280;35993;52.604;10.078;2023-08-21T03:11:55;101857.38;;;18.12;100.00
50103;BME280;35993;52.604;10.078;2023-08-21T03:14:21;101855.59;;;18.06;100.00
50103;BME280;35993;52.604;10.078;2023-08-21T03:16:48;101856.06;;;18.02;100.00
50103;BME280;35993;52.604;10.078;2023-08-21T03:19:13;101846.63;;;17.98;100.00
50103;BME280;35993;52.604;10.078;2023-08-21T03:21:39;101850.28;;;17.92;100.00
50103;BME280;35993;52.604;10.078;2023-08-21T03:24:06;101850.19;;;17.87;100.00
50103;BME280;35993;52.604;10.078;2023-08-21T03:26:34;101842.63;;;17.82;100.00
50103;BME280;35993;52.604;10.078;2023-08-21T03:29:00;101847.69;;;17.85;100.00
50103;BME280;35993;52.604;10.078;2023-08-21T03:31:26;101845.63;;;17.81;100.00
50103;BME280;35993;52.604;10.078;2023-08-21T03:33:53;101854.25;;;17.84;100.00
50103;BME280;35993;52.604;10.078;2023-08-21T03:36:21;101845.75;;;17.86;100.00
50103;BME280;35993;52.604;10.078;2023-08-21T03:38:50;101855.69;;;17.99;100.00
50103;BME280;35993;52.604;10.078;2023-08-21T03:41:15;101852.59;;;18.07;100.00
50103;BME280;35993;52.604;10.078;2023-08-21T03:43:41;101850.31;;;18.04;100.00
50103;BME280;35993;52.604;10.078;2023-08-21T03:46:07;101855.69;;;17.99;100.00
50103;BME280;35993;52.604;10.078;2023-08-21T03:48:32;101854.75;;;18.05;100.00
50103;BME280;35993;52.604;10.078;2023-08-21T03:51:01;101858.81;;;18.02;100.00
50103;BME280;35993;52.604;10.078;2023-08-21T03:53:29;101856.75;;;17.98;100.00
50103;BME280;35993;52.604;10.078;2023-08-21T03:55:54;101858.19;;;18.00;100.00
50103;BME280;35993;52.604;10.078;2023-08-21T03:58:20;101857.25;;;17.95;100.00
50103;BME280;35993;52.604;10.078;2023-08-21T04:00:47;101852.44;;;17.90;100.00
50103;BME280;35993;52.604;10.078;2023-08-21T04:03:13;101858.53;;;17.80;100.00
50103;BME280;35993;52.604;10.078;2023-08-21T04:05:38;101862.47;;;17.84;100.00
50103;BME280;35993;52.604;10.078;2023-08-21T04:08:05;101870.84;;;17.90;100.00
50103;BME280;35993;52.604;10.078;2023-08-21T04:10:32;101863.81;;;17.94;100.00
50103;BME280;35993;52.604;10.078;2023-08-21T04:12:59;101869.94;;;17.96;100.00
50103;BME280;35993;52.604;10.078;2023-08-21T04:15:25;101863.56;;;17.95;100.00
50103;BME280;35993;52.604;10.078;2023-08-21T04:17:52;101865.00;;;17.98;100.00
50103;BME280;35993;52.604;10.078;2023-08-21T04:20:19;101870.16;;;17.94;100.00
50103;BME280;35993;52.604;10.078;2023-08-21T04:22:48;101878.72;;;17.86;100.00
50103;BME280;35993;52.604;10.078;2023-08-21T04:25:13;101877.78;;;17.92;100.00
50103;BME280;35993;52.604;10.078;2023-08-21T04:27:39;101885.34;;;17.97;100.00
50103;BME280;35993;52.604;10.078;2023-08-21T04:30:08;101880.78;;;18.02;100.00
50103;BME280;35993;52.604;10.078;2023-08-21T04:32:40;101877.59;;;18.06;100.00
50103;BME280;35993;52.604;10.078;2023-08-21T04:35:08;101875.16;;;18.09;100.00
50103;BME280;35993;52.604;10.078;2023-08-21T04:37:37;101883.19;;;18.11;100.00
50103;BME280;35993;52.604;10.078;2023-08-21T04:40:05;101883.06;;;18.06;100.00
50103;BME280;35993;52.604;10.078;2023-08-21T04:42:35;101888.41;;;18.00;100.00
50103;BME280;35993;52.604;10.078;2023-08-21T04:45:01;101882.59;;;18.09;100.00
50103;BME280;35993;52.604;10.078;2023-08-21T04:47:29;101879.34;;;18.12;100.00
50103;BME280;35993;52.604;10.078;2023-08-21T04:49:59;101878.28;;;18.13;100.00
50103;BME280;35993;52.604;10.078;2023-08-21T04:52:26;101877.81;;;18.16;100.00
50103;BME280;35993;52.604;10.078;2023-08-21T04:54:54;101878.25;;;18.25;100.00
50103;BME280;35993;52.604;10.078;2023-08-21T04:57:21;101882.22;;;18.17;100.00
50103;BME280;35993;52.604;10.078;2023-08-21T04:59:47;101882.69;;;18.14;100.00
50103;BME280;35993;52.604;10.078;2023-08-21T05:02:15;101889.50;;;18.11;100.00
50103;BME280;35993;52.604;10.078;2023-08-21T05:04:40;101888.44;;;18.12;100.00
50103;BME280;35993;52.604;10.078;2023-08-21T05:07:12;101893.44;;;18.15;100.00
50103;BME280;35993;52.604;10.078;2023-08-21T05:09:38;101887.94;;;18.15;100.00
50103;BME280;35993;52.604;10.078;2023-08-21T05:12:07;101889.25;;;18.25;100.00
50103;BME280;35993;52.604;10.078;2023-08-21T05:14:35;101885.19;;;18.39;100.00
50103;BME280;35993;52.604;10.078;2023-08-21T05:17:00;101883.53;;;18.38;100.00
50103;BME280;35993;52.604;10.078;2023-08-21T05:19:26;101894.53;;;18.38;100.00
50103;BME280;35993;52.604;10.078;2023-08-21T05:21:52;101894.03;;;18.41;100.00
50103;BME280;35993;52.604;10.078;2023-08-21T05:24:19;101894.97;;;18.59;100.00
50103;BME280;35993;52.604;10.078;2023-08-21T05:26:51;101902.00;;;18.66;100.00
50103;BME280;35993;52.604;10.078;2023-08-21T05:29:17;101896.03;;;18.70;100.00
50103;BME280;35993;52.604;10.078;2023-08-21T05:31:43;101905.06;;;18.82;100.00
50103;BME280;35993;52.604;10.078;2023-08-21T05:34:28;101903.41;;;18.93;100.00
50103;BME280;35993;52.604;10.078;2023-08-21T05:36:55;101913.03;;;19.07;100.00
50103;BME280;35993;52.604;10.078;2023-08-21T05:39:21;101908.97;;;19.10;100.00
50103;BME280;35993;52.604;10.078;2023-08-21T05:41:48;101919.16;;;19.09;100.00
50103;BME280;35993;52.604;10.078;2023-08-21T05:44:14;101914.38;;;19.05;100.00
50103;BME280;35993;52.604;10.078;2023-08-21T05:46:41;101917.56;;;19.13;100.00
50103;BME280;35993;52.604;10.078;2023-08-21T05:49:06;101914.66;;;19.20;100.00
50103;BME280;35993;52.604;10.078;2023-08-21T05:51:33;101916.13;;;19.40;100.00
50103;BME280;35993;52.604;10.078;2023-08-21T05:54:00;101918.66;;;19.58;100.00
50103;BME280;35993;52.604;10.078;2023-08-21T05:56:26;101907.00;;;19.68;100.00
50103;BME280;35993;52.604;10.078;2023-08-21T05:58:52;101924.28;;;19.80;100.00
50103;BME280;35993;52.604;10.078;2023-08-21T06:01:18;101925.13;;;19.81;100.00
50103;BME280;35993;52.604;10.078;2023-08-21T06:03:44;101924.28;;;19.80;100.00
50103;BME280;35993;52.604;10.078;2023-08-21T06:06:22;101923.72;;;19.78;100.00
50103;BME280;35993;52.604;10.078;2023-08-21T06:08:48;101923.09;;;19.76;100.00
50103;BME280;35993;52.604;10.078;2023-08-21T06:11:15;101928.41;;;19.95;100.00
50103;BME280;35993;52.604;10.078;2023-08-21T06:13:41;101930.91;;;19.96;100.00
50103;BME280;35993;52.604;10.078;2023-08-21T06:16:06;101931.97;;;20.12;100.00
50103;BME280;35993;52.604;10.078;2023-08-21T06:18:36;101928.41;;;20.12;100.00
50103;BME280;35993;52.604;10.078;2023-08-21T06:21:05;101936.31;;;20.25;100.00
50103;BME280;35993;52.604;10.078;2023-08-21T06:23:31;101930.56;;;20.10;100.00
50103;BME280;35993;52.604;10.078;2023-08-21T06:25:59;101936.34;;;20.08;100.00
50103;BME280;35993;52.604;10.078;2023-08-21T06:28:25;101940.25;;;20.29;100.00
50103;BME280;35993;52.604;10.078;2023-08-21T06:30:56;101945.41;;;20.43;100.00
50103;BME280;35993;52.604;10.078;2023-08-21T06:33:24;101948.25;;;20.48;100.00
50103;BME280;35993;52.604;10.078;2023-08-21T06:35:50;101950.66;;;20.61;100.00
50103;BME280;35993;52.604;10.078;2023-08-21T06:38:17;101953.97;;;20.63;100.00
50103;BME280;35993;52.604;10.078;2023-08-21T06:40:45;101951.19;;;20.81;100.00
50103;BME280;35993;52.604;10.078;2023-08-21T06:43:11;101961.03;;;20.93;100.00
50103;BME280;35993;52.604;10.078;2023-08-21T06:45:42;101959.97;;;20.77;100.00
50103;BME280;35993;52.604;10.078;2023-08-21T06:48:07;101948.00;;;20.89;100.00
50103;BME280;35993;52.604;10.078;2023-08-21T06:50:33;101943.06;;;20.91;100.00
50103;BME280;35993;52.604;10.078;2023-08-21T06:52:58;101943.44;;;20.60;100.00
50103;BME280;35993;52.604;10.078;2023-08-21T06:55:24;101957.81;;;20.62;100.00
50103;BME280;35993;52.604;10.078;2023-08-21T06:57:50;101944.34;;;20.83;100.00
50103;BME280;35993;52.604;10.078;2023-08-21T07:00:15;101950.13;;;21.04;100.00
50103;BME280;35993;52.604;10.078;2023-08-21T07:02:41;101952.66;;;21.10;100.00
50103;BME280;35993;52.604;10.078;2023-08-21T07:05:07;101949.94;;;21.38;100.00
50103;BME280;35993;52.604;10.078;2023-08-21T07:07:33;101959.81;;;21.56;99.80
50103;BME280;35993;52.604;10.078;2023-08-21T07:09:59;101948.16;;;21.54;97.88
50103;BME280;35993;52.604;10.078;2023-08-21T07:12:25;101951.66;;;21.44;99.09
50103;BME280;35993;52.604;10.078;2023-08-21T07:14:51;101955.13;;;21.56;97.94
50103;BME280;35993;52.604;10.078;2023-08-21T07:17:16;101954.28;;;21.56;97.31
50103;BME280;35993;52.604;10.078;2023-08-21T07:19:42;101952.22;;;21.46;97.18
50103;BME280;35993;52.604;10.078;2023-08-21T07:22:08;101949.97;;;21.43;97.22
50103;BME280;35993;52.604;10.078;2023-08-21T07:24:41;101947.03;;;21.50;96.14
50103;BME280;35993;52.604;10.078;2023-08-21T07:27:06;101945.63;;;21.47;95.58
50103;BME280;35993;52.604;10.078;2023-08-21T07:29:32;101944.28;;;21.50;95.72
50103;BME280;35993;52.604;10.078;2023-08-21T07:31:59;101943.41;;;21.49;94.86
50103;BME280;35993;52.604;10.078;2023-08-21T07:34:24;101947.53;;;21.47;94.63
50103;BME280;35993;52.604;10.078;2023-08-21T07:36:50;101949.53;;;21.51;94.60
50103;BME280;35993;52.604;10.078;2023-08-21T07:39:15;101951.75;;;21.54;94.79
50103;BME280;35993;52.604;10.078;2023-08-21T07:41:41;101947.81;;;21.45;93.76
50103;BME280;35993;52.604;10.078;2023-08-21T07:44:06;101955.44;;;21.60;93.29
50103;BME280;35993;52.604;10.078;2023-08-21T07:46:32;101952.34;;;21.84;92.03
50103;BME280;35993;52.604;10.078;2023-08-21T07:48:59;101944.75;;;22.01;90.20
50103;BME280;35993;52.604;10.078;2023-08-21T07:51:25;101950.19;;;22.29;90.49
50103;BME280;35993;52.604;10.078;2023-08-21T07:53:51;101942.13;;;22.22;88.07
50103;BME280;35993;52.604;10.078;2023-08-21T07:56:17;101950.19;;;22.29;87.72
50103;BME280;35993;52.604;10.078;2023-08-21T07:58:43;101949.78;;;22.47;87.69
50103;BME280;35993;52.604;10.078;2023-08-21T08:01:14;101959.81;;;22.53;87.23
50103;BME280;35993;52.604;10.078;2023-08-21T08:03:40;101953.66;;;22.46;87.48
50103;BME280;35993;52.604;10.078;2023-08-21T08:06:05;101958.53;;;22.34;86.29
50103;BME280;35993;52.604;10.078;2023-08-21T08:08:31;101962.59;;;22.21;86.43
50103;BME280;35993;52.604;10.078;2023-08-21T08:11:01;101955.06;;;22.11;86.31
50103;BME280;35993;52.604;10.078;2023-08-21T08:13:28;101951.16;;;22.12;87.01
50103;BME280;35993;52.604;10.078;2023-08-21T08:15:53;101951.53;;;22.21;86.47
50103;BME280;35993;52.604;10.078;2023-08-21T08:18:19;101945.47;;;22.24;84.94
50103;BME280;35993;52.604;10.078;2023-08-21T08:20:45;101952.34;;;22.16;86.25
50103;BME280;35993;52.604;10.078;2023-08-21T08:23:12;101955.13;;;22.21;84.45
50103;BME280;35993;52.604;10.078;2023-08-21T08:25:41;101955.13;;;22.21;84.60
50103;BME280;35993;52.604;10.078;2023-08-21T08:28:07;101947.38;;;22.23;84.52
50103;BME280;35993;52.604;10.078;2023-08-21T08:30:33;101950.75;;;22.31;84.43
50103;BME280;35993;52.604;10.078;2023-08-21T08:32:59;101966.00;;;22.33;85.34
50103;BME280;35993;52.604;10.078;2023-08-21T08:35:25;101957.44;;;22.35;84.00
50103;BME280;35993;52.604;10.078;2023-08-21T08:37:51;101960.09;;;22.19;84.75
50103;BME280;35993;52.604;10.078;2023-08-21T08:40:17;101967.84;;;22.22;84.05
50103;BME280;35993;52.604;10.078;2023-08-21T08:42:43;101961.75;;;22.20;84.65
50103;BME280;35993;52.604;10.078;2023-08-21T08:45:12;101967.31;;;22.25;84.82
50103;BME280;35993;52.604;10.078;2023-08-21T08:47:42;101966.41;;;22.47;85.41
50103;BME280;35993;52.604;10.078;2023-08-21T08:50:08;101972.03;;;22.63;86.63
50103;BME280;35993;52.604;10.078;2023-08-21T08:52:36;101962.78;;;22.47;81.83
50103;BME280;35993;52.604;10.078;2023-08-21T08:55:02;101957.34;;;22.67;82.50
50103;BME280;35993;52.604;10.078;2023-08-21T08:57:29;101942.72;;;22.72;78.18
50103;BME280;35993;52.604;10.078;2023-08-21T08:59:56;101944.69;;;22.77;78.56
50103;BME280;35993;52.604;10.078;2023-08-21T09:02:24;101944.44;;;22.83;78.71
50103;BME280;35993;52.604;10.078;2023-08-21T09:04:50;101946.38;;;22.83;78.92
50103;BME280;35993;52.604;10.078;2023-08-21T09:07:17;101949.53;;;23.07;77.86
50103;BME280;35993;52.604;10.078;2023-08-21T09:09:47;101944.63;;;23.35;77.23
50103;BME280;35993;52.604;10.078;2023-08-21T09:12:15;101943.56;;;23.56;78.24
50103;BME280;35993;52.604;10.078;2023-08-21T09:14:45;101934.13;;;23.47;76.36
50103;BME280;35993;52.604;10.078;2023-08-21T09:17:11;101937.16;;;23.35;75.08
50103;BME280;35993;52.604;10.078;2023-08-21T09:19:37;101938.53;;;23.22;75.20
50103;BME280;35993;52.604;10.078;2023-08-21T09:22:16;101932.44;;;23.36;76.04
50103;BME280;35993;52.604;10.078;2023-08-21T09:25:06;101915.84;;;23.51;72.22
50103;BME280;35993;52.604;10.078;2023-08-21T09:27:34;101912.81;;;23.63;67.76
50103;BME280;35993;52.604;10.078;2023-08-21T09:30:04;101906.97;;;23.44;67.48
50103;BME280;35993;52.604;10.078;2023-08-21T09:32:55;101915.00;;;23.46;69.59
50103;BME280;35993;52.604;10.078;2023-08-21T09:35:22;101908.91;;;23.38;68.74
50103;BME280;35993;52.604;10.078;2023-08-21T09:37:48;101916.13;;;23.45;69.22
50103;BME280;35993;52.604;10.078;2023-08-21T09:40:17;101921.94;;;23.43;70.19
50103;BME280;35993;52.604;10.078;2023-08-21T09:42:43;101919.69;;;23.35;69.48
50103;BME280;35993;52.604;10.078;2023-08-21T09:45:09;101919.44;;;23.31;69.39
50103;BME280;35993;52.604;10.078;2023-08-21T09:47:36;101933.00;;;23.33;70.47
50103;BME280;35993;52.604;10.078;2023-08-21T09:50:02;101922.22;;;23.42;70.13
50103;BME280;35993;52.604;10.078;2023-08-21T09:52:28;101921.94;;;23.48;69.75
50103;BME280;35993;52.604;10.078;2023-08-21T09:55:14;101914.72;;;23.47;68.54
50103;BME280;35993;52.604;10.078;2023-08-21T09:57:40;101921.97;;;23.59;68.97
50103;BME280;35993;52.604;10.078;2023-08-21T10:00:09;101927.78;;;23.72;70.72
50103;BME280;35993;52.604;10.078;2023-08-21T10:02:42;101921.69;;;23.76;69.36
50103;BME280;35993;52.604;10.078;2023-08-21T10:05:13;101920.28;;;23.73;69.17
50103;BME280;35993;52.604;10.078;2023-08-21T10:07:40;101923.91;;;23.73;70.30
50103;BME280;35993;52.604;10.078;2023-08-21T10:10:08;101928.06;;;23.71;69.78
50103;BME280;35993;52.604;10.078;2023-08-21T10:12:34;101925.25;;;23.61;70.54
50103;BME280;35993;52.604;10.078;2023-08-21T10:15:01;101930.28;;;23.59;70.55
50103;BME280;35993;52.604;10.078;2023-08-21T10:17:27;101926.13;;;23.56;70.95
50103;BME280;35993;52.604;10.078;2023-08-21T10:19:53;101934.44;;;23.66;70.49
50103;BME280;35993;52.604;10.078;2023-08-21T10:22:44;101932.22;;;23.73;70.28
50103;BME280;35993;52.604;10.078;2023-08-21T10:25:21;101934.72;;;23.65;72.08
50103;BME280;35993;52.604;10.078;2023-08-21T10:28:05;101934.16;;;23.68;70.66
50103;BME280;35993;52.604;10.078;2023-08-21T10:30:31;101930.00;;;23.76;69.42
50103;BME280;35993;52.604;10.078;2023-08-21T10:32:58;101930.03;;;23.96;69.63
50103;BME280;35993;52.604;10.078;2023-08-21T10:35:29;101931.66;;;24.18;68.84
50103;BME280;35993;52.604;10.078;2023-08-21T10:38:12;101922.78;;;24.31;67.69
50103;BME280;35993;52.604;10.078;2023-08-21T10:41:03;101923.50;;;24.58;67.71
50103;BME280;35993;52.604;10.078;2023-08-21T10:43:45;101908.59;;;24.33;64.74
50103;BME280;35993;52.604;10.078;2023-08-21T10:46:12;101910.56;;;24.22;64.35
50103;BME280;35993;52.604;10.078;2023-08-21T10:48:41;101895.09;;;24.05;63.35
50103;BME280;35993;52.604;10.078;2023-08-21T10:51:09;101898.97;;;24.04;63.26
50103;BME280;35993;52.604;10.078;2023-08-21T10:53:35;101897.59;;;24.02;63.75
50103;BME280;35993;52.604;10.078;2023-08-21T10:56:02;101891.44;;;24.10;63.03
50103;BME280;35993;52.604;10.078;2023-08-21T10:58:28;101881.44;;;24.30;59.80
50103;BME280;35993;52.604;10.078;2023-08-21T11:00:57;101901.66;;;24.35;61.11
50103;BME280;35993;52.604;10.078;2023-08-21T11:03:24;101904.72;;;24.39;62.80
50103;BME280;35993;52.604;10.078;2023-08-21T11:06:07;101894.44;;;24.34;60.03
50103;BME280;35993;52.604;10.078;2023-08-21T11:08:35;101906.59;;;24.59;61.21
50103;BME280;35993;52.604;10.078;2023-08-21T11:11:05;101887.16;;;24.69;59.78
50103;BME280;35993;52.604;10.078;2023-08-21T11:13:31;101884.03;;;24.81;60.21
50103;BME280;35993;52.604;10.078;2023-08-21T11:16:02;101889.59;;;24.81;59.43
50103;BME280;35993;52.604;10.078;2023-08-21T11:18:36;101879.38;;;24.66;60.26
50103;BME280;35993;52.604;10.078;2023-08-21T11:21:08;101879.59;;;24.80;61.07
50103;BME280;35993;52.604;10.078;2023-08-21T11:23:39;101887.56;;;24.92;61.47
50103;BME280;35993;52.604;10.078;2023-08-21T11:26:06;101879.41;;;25.11;60.37
50103;BME280;35993;52.604;10.078;2023-08-21T11:28:35;101871.47;;;25.39;58.40
50103;BME280;35993;52.604;10.078;2023-08-21T11:31:01;101845.16;;;25.26;54.63
50103;BME280;35993;52.604;10.078;2023-08-21T11:33:28;101841.25;;;25.27;54.63
50103;BME280;35993;52.604;10.078;2023-08-21T11:35:55;101854.22;;;25.42;55.55
50103;BME280;35993;52.604;10.078;2023-08-21T11:38:25;101877.50;;;25.51;57.04
50103;BME280;35993;52.604;10.078;2023-08-21T11:43:21;101857.78;;;25.48;55.25
50103;BME280;35993;52.604;10.078;2023-08-21T11:45:48;101855.78;;;25.54;54.27
50103;BME280;35993;52.604;10.078;2023-08-21T11:48:14;101857.50;;;25.49;55.07
50103;BME280;35993;52.604;10.078;2023-08-21T11:50:40;101870.84;;;25.52;55.92
50103;BME280;35993;52.604;10.078;2023-08-21T11:53:06;101836.16;;;25.40;52.93
50103;BME280;35993;52.604;10.078;2023-08-21T11:55:34;101867.88;;;25.33;56.03
50103;BME280;35993;52.604;10.078;2023-08-21T11:58:02;101858.44;;;25.29;54.64
50103;BME280;35993;52.604;10.078;2023-08-21T12:00:28;101856.22;;;25.37;54.98
50103;BME280;35993;52.604;10.078;2023-08-21T12:02:59;101866.78;;;25.29;56.46
50103;BME280;35993;52.604;10.078;2023-08-21T12:05:26;101862.97;;;25.20;54.79
50103;BME280;35993;52.604;10.078;2023-08-21T12:07:52;101849.38;;;25.18;53.46
50103;BME280;35993;52.604;10.078;2023-08-21T12:10:25;101826.81;;;25.25;50.97
50103;BME280;35993;52.604;10.078;2023-08-21T12:12:52;101827.78;;;25.45;49.16
50103;BME280;35993;52.604;10.078;2023-08-21T12:15:17;101850.81;;;25.50;51.64
50103;BME280;35993;52.604;10.078;2023-08-21T12:17:43;101843.09;;;25.42;52.31
50103;BME280;35993;52.604;10.078;2023-08-21T12:20:09;101845.59;;;25.44;52.62
50103;BME280;35993;52.604;10.078;2023-08-21T12:22:41;101841.38;;;25.51;52.70
50103;BME280;35993;52.604;10.078;2023-08-21T12:25:09;101824.50;;;25.72;51.79
50103;BME280;35993;52.604;10.078;2023-08-21T12:27:37;101827.56;;;26.00;51.89
50103;BME280;35993;52.604;10.078;2023-08-21T12:30:04;101838.88;;;26.33;51.35
50103;BME280;35993;52.604;10.078;2023-08-21T12:32:47;101827.47;;;26.10;50.63
50103;BME280;35993;52.604;10.078;2023-08-21T12:35:12;101846.72;;;25.72;52.78
50103;BME280;35993;52.604;10.078;2023-08-21T12:37:38;101849.06;;;25.60;52.64
50103;BME280;35993;52.604;10.078;2023-08-21T12:40:04;101849.25;;;25.39;52.78
50103;BME280;35993;52.604;10.078;2023-08-21T12:42:31;101852.84;;;25.40;53.37
50103;BME280;35993;52.604;10.078;2023-08-21T12:44:57;101858.81;;;25.57;52.84